createdAt,value
2023-04-23T03:59:54.579Z,20.91
2023-04-23T04:00:54.514Z,20.93
2023-04-23T04:01:54.524Z,20.88
2023-04-23T04:02:54.729Z,20.93
2023-04-23T04:03:54.688Z,20.97
2023-04-23T04:04:54.656Z,20.96
2023-04-23T04:05:54.651Z,20.93
2023-04-23T04:06:54.472Z,20.90
2023-04-23T04:07:54.479Z,20.97
2023-04-23T04:08:54.470Z,20.96
2023-04-23T04:09:54.482Z,20.98
2023-04-23T04:10:54.482Z,20.96
2023-04-23T04:11:54.462Z,21.01
2023-04-23T04:12:54.443Z,21.00
2023-04-23T04:13:54.446Z,21.00
2023-04-23T04:14:54.430Z,21.03
2023-04-23T04:15:54.462Z,21.04
2023-04-23T04:16:54.466Z,20.98
2023-04-23T04:17:54.446Z,21.06
2023-04-23T04:18:56.449Z,20.97
2023-04-23T04:19:54.436Z,21.04
2023-04-23T04:20:54.418Z,21.03
2023-04-23T04:21:54.403Z,21.09
2023-04-23T04:22:54.400Z,21.08
2023-04-23T04:23:54.398Z,21.13
2023-04-23T04:24:54.417Z,21.13
2023-04-23T04:25:54.413Z,21.09
2023-04-23T04:26:54.414Z,21.15
2023-04-23T04:27:54.409Z,21.23
2023-04-23T04:28:54.403Z,21.19
2023-04-23T04:29:54.428Z,21.21
2023-04-23T04:30:54.399Z,21.21
2023-04-23T04:31:54.394Z,21.21
2023-04-23T04:32:54.365Z,21.23
2023-04-23T04:33:54.350Z,21.28
2023-04-23T04:34:54.362Z,21.30
2023-04-23T04:35:54.362Z,21.33
2023-04-23T04:36:54.343Z,21.25
2023-04-23T04:37:54.352Z,21.27
2023-04-23T04:38:54.357Z,21.34
2023-04-23T04:39:54.385Z,21.37
2023-04-23T04:40:54.382Z,21.33
2023-04-23T04:41:54.321Z,21.34
2023-04-23T04:42:54.350Z,21.33
2023-04-23T04:43:54.318Z,21.36
2023-04-23T04:44:54.319Z,21.38
2023-04-23T04:45:54.316Z,21.38
2023-04-23T04:46:54.322Z,21.38
2023-04-23T04:47:54.369Z,21.41
2023-04-23T04:48:54.302Z,21.40
2023-04-23T04:49:54.286Z,21.38
2023-04-23T04:50:54.296Z,21.46
2023-04-23T04:51:54.309Z,21.49
2023-04-23T04:52:54.323Z,21.48
2023-04-23T04:53:54.334Z,21.48
2023-04-23T04:54:54.305Z,21.53
2023-04-23T04:55:54.288Z,21.48
2023-04-23T04:56:54.287Z,21.41
2023-04-23T04:57:54.274Z,21.48
2023-04-23T04:58:54.304Z,21.51
2023-04-23T04:59:54.305Z,21.56
2023-04-23T05:00:54.306Z,21.55
2023-04-23T05:01:54.301Z,21.53
2023-04-23T05:02:54.341Z,21.53
2023-04-23T05:03:54.452Z,21.52
2023-04-23T05:04:54.244Z,21.56
2023-04-23T05:05:54.247Z,21.56
2023-04-23T05:06:54.232Z,21.62
2023-04-23T05:07:54.301Z,21.53
2023-04-23T05:08:54.264Z,21.59
2023-04-23T05:09:54.230Z,21.58
2023-04-23T05:10:54.251Z,21.61
2023-04-23T05:11:54.230Z,21.56
2023-04-23T05:12:54.237Z,21.59
2023-04-23T05:13:54.249Z,21.62
2023-04-23T05:14:54.427Z,21.64
2023-04-23T05:15:54.212Z,21.67
2023-04-23T05:16:54.239Z,21.66
2023-04-23T05:17:54.226Z,21.68
2023-04-23T05:18:54.200Z,21.67
2023-04-23T05:19:54.219Z,21.59
2023-04-23T05:20:54.186Z,21.67
2023-04-23T05:21:54.185Z,21.66
2023-04-23T05:22:54.185Z,21.67
2023-04-23T05:23:54.199Z,21.73
2023-04-23T05:24:54.199Z,21.70
2023-04-23T05:25:54.463Z,21.64
2023-04-23T05:26:54.173Z,21.70
2023-04-23T05:27:54.193Z,21.74
2023-04-23T05:28:54.168Z,21.76
2023-04-23T05:29:54.199Z,21.74
2023-04-23T05:30:54.156Z,21.77
2023-04-23T05:31:54.165Z,21.77
2023-04-23T05:32:54.188Z,21.77
2023-04-23T05:33:54.158Z,21.77
2023-04-23T05:34:54.141Z,21.78
2023-04-23T05:35:54.146Z,21.83
2023-04-23T05:36:54.138Z,21.83
2023-04-23T05:37:54.155Z,21.80
2023-04-23T05:38:54.126Z,21.86
2023-04-23T05:39:54.165Z,21.82
2023-04-23T05:40:54.110Z,21.85
2023-04-23T05:41:54.121Z,21.83
2023-04-23T05:42:54.115Z,21.83
2023-04-23T05:43:54.127Z,21.89
2023-04-23T05:44:54.095Z,21.96
2023-04-23T05:45:54.102Z,21.89
2023-04-23T05:46:54.093Z,21.94
2023-04-23T05:47:54.229Z,21.94
2023-04-23T05:48:54.092Z,21.94
2023-04-23T05:49:54.078Z,21.90
2023-04-23T05:50:54.082Z,21.93
2023-04-23T05:51:54.135Z,21.97
2023-04-23T05:52:54.070Z,22.04
2023-04-23T05:53:54.091Z,22.00
2023-04-23T05:54:54.056Z,22.07
2023-04-23T05:55:54.093Z,22.05
2023-04-23T05:56:54.703Z,22.12
2023-04-23T05:57:54.060Z,22.08
2023-04-23T05:58:54.071Z,22.07
2023-04-23T05:59:54.039Z,22.11
2023-04-23T06:00:54.051Z,22.09
2023-04-23T06:01:54.034Z,22.24
2023-04-23T06:02:54.140Z,22.23
2023-04-23T06:03:54.304Z,22.26
2023-04-23T06:04:54.364Z,22.22
2023-04-23T06:05:54.032Z,22.26
2023-04-23T06:06:54.021Z,22.31
2023-04-23T06:07:54.063Z,22.38
2023-04-23T06:08:54.049Z,22.41
2023-04-23T06:09:54.023Z,22.45
2023-04-23T06:10:54.011Z,22.39
2023-04-23T06:11:54.009Z,22.45
2023-04-23T06:12:54.048Z,22.49
2023-04-23T06:13:54.026Z,22.48
2023-04-23T06:14:54.013Z,22.60
2023-04-23T06:15:54.029Z,22.60
2023-04-23T06:16:53.986Z,22.60
2023-04-23T06:17:54.044Z,22.61
2023-04-23T06:18:53.990Z,22.60
2023-04-23T06:19:53.998Z,22.66
2023-04-23T06:20:54.002Z,22.67
2023-04-23T06:21:53.970Z,22.76
2023-04-23T06:22:53.987Z,22.81
2023-04-23T06:23:53.985Z,22.86
2023-04-23T06:24:53.979Z,22.91
2023-04-23T06:25:53.974Z,23.01
2023-04-23T06:26:53.954Z,22.96
2023-04-23T06:27:53.958Z,23.04
2023-04-23T06:28:53.967Z,23.10
2023-04-23T06:29:54.062Z,23.06
2023-04-23T06:30:53.958Z,23.12
2023-04-23T06:31:53.988Z,23.06
2023-04-23T06:32:53.988Z,23.19
2023-04-23T06:33:53.949Z,23.15
2023-04-23T06:35:01.711Z,23.18
2023-04-23T06:35:53.964Z,23.21
2023-04-23T06:36:53.963Z,23.26
2023-04-23T06:37:53.937Z,23.25
2023-04-23T06:38:53.923Z,23.25
2023-04-23T06:39:53.950Z,23.25
2023-04-23T06:40:53.947Z,23.24
2023-04-23T06:41:53.921Z,23.38
2023-04-23T06:42:53.931Z,23.42
2023-04-23T06:43:53.930Z,23.34
2023-04-23T06:44:53.920Z,23.38
2023-04-23T06:45:53.957Z,23.40
2023-04-23T06:46:53.955Z,23.38
2023-04-23T06:47:53.926Z,23.41
2023-04-23T06:48:53.915Z,23.45
2023-04-23T06:49:53.932Z,23.37
2023-04-23T06:50:53.992Z,23.45
2023-04-23T06:51:55.243Z,23.44
2023-04-23T06:52:53.905Z,23.48
2023-04-23T06:53:53.918Z,23.44
2023-04-23T06:54:53.916Z,23.57
2023-04-23T06:55:53.972Z,23.55
2023-04-23T06:56:53.907Z,23.60
2023-04-23T06:57:53.901Z,23.59
2023-04-23T06:58:53.892Z,23.64
2023-04-23T06:59:53.916Z,23.62
2023-04-23T07:00:53.926Z,23.63
2023-04-23T07:01:53.880Z,23.62
2023-04-23T07:02:53.926Z,23.67
2023-04-23T07:03:53.936Z,23.72
2023-04-23T07:04:53.891Z,23.67
2023-04-23T07:05:53.896Z,23.64
2023-04-23T07:06:53.884Z,23.72
2023-04-23T07:07:53.910Z,23.72
2023-04-23T07:08:53.982Z,23.75
2023-04-23T07:09:53.888Z,23.87
2023-04-23T07:10:53.897Z,23.90
2023-04-23T07:11:53.907Z,23.94
2023-04-23T07:12:53.888Z,23.93
2023-04-23T07:13:53.873Z,23.94
2023-04-23T07:14:53.869Z,23.96
2023-04-23T07:15:53.883Z,24.07
2023-04-23T07:16:53.967Z,24.07
2023-04-23T07:17:53.919Z,24.00
2023-04-23T07:18:53.887Z,24.11
2023-04-23T07:19:53.895Z,24.14
2023-04-23T07:20:55.905Z,24.08
2023-04-23T07:21:53.896Z,24.15
2023-04-23T07:22:53.890Z,24.19
2023-04-23T07:23:53.864Z,24.24
2023-04-23T07:24:53.878Z,24.19
2023-04-23T07:25:53.879Z,24.26
2023-04-23T07:26:53.855Z,24.29
2023-04-23T07:27:53.921Z,24.36
2023-04-23T07:28:53.857Z,24.32
2023-04-23T07:29:53.884Z,24.46
2023-04-23T07:30:53.878Z,24.44
2023-04-23T07:31:53.969Z,24.52
2023-04-23T07:32:53.912Z,24.48
2023-04-23T07:33:53.849Z,24.48
2023-04-23T07:34:53.852Z,24.63
2023-04-23T07:35:53.854Z,24.66
2023-04-23T07:36:53.878Z,24.59
2023-04-23T07:37:53.895Z,24.66
2023-04-23T07:38:53.853Z,24.71
2023-04-23T07:39:53.906Z,24.67
2023-04-23T07:40:53.846Z,24.80
2023-04-23T07:41:53.850Z,24.71
2023-04-23T07:42:53.840Z,24.78
2023-04-23T07:43:53.854Z,24.82
2023-04-23T07:44:53.930Z,24.87
2023-04-23T07:45:53.892Z,24.85
2023-04-23T07:46:53.832Z,24.93
2023-04-23T07:47:53.887Z,24.97
2023-04-23T07:48:53.889Z,25.07
2023-04-23T07:49:53.842Z,25.04
2023-04-23T07:50:53.872Z,25.12
2023-04-23T07:51:53.849Z,25.11
2023-04-23T07:52:53.833Z,25.07
2023-04-23T07:53:53.858Z,25.11
2023-04-23T07:54:53.847Z,25.12
2023-04-23T07:55:53.833Z,25.19
2023-04-23T07:56:53.855Z,25.22
2023-04-23T07:57:53.842Z,25.33
2023-04-23T07:58:53.860Z,25.30
2023-04-23T07:59:53.855Z,25.30
2023-04-23T08:00:53.827Z,25.30
2023-04-23T08:01:53.848Z,25.30
2023-04-23T08:02:53.993Z,25.38
2023-04-23T08:03:55.172Z,25.30
2023-04-23T08:04:54.027Z,25.44
2023-04-23T08:05:53.838Z,25.37
2023-04-23T08:06:53.851Z,25.47
2023-04-23T08:07:53.854Z,25.39
2023-04-23T08:08:53.830Z,25.42
2023-04-23T08:09:53.859Z,25.49
2023-04-23T08:10:53.827Z,25.51
2023-04-23T08:11:53.852Z,25.59
2023-04-23T08:12:53.853Z,25.57
2023-04-23T08:13:53.842Z,25.67
2023-04-23T08:14:53.823Z,25.59
2023-04-23T08:15:53.861Z,25.52
2023-04-23T08:16:53.810Z,25.59
2023-04-23T08:17:54.122Z,25.69
2023-04-23T08:19:04.304Z,25.70
2023-04-23T08:19:53.838Z,25.70
2023-04-23T08:20:53.836Z,25.74
2023-04-23T08:21:53.825Z,25.75
2023-04-23T08:22:53.864Z,25.71
2023-04-23T08:23:53.853Z,25.78
2023-04-23T08:24:53.821Z,25.84
2023-04-23T08:25:53.827Z,25.86
2023-04-23T08:26:53.839Z,25.84
2023-04-23T08:27:53.850Z,25.85
2023-04-23T08:28:53.823Z,25.85
2023-04-23T08:29:53.833Z,25.81
2023-04-23T08:30:53.831Z,25.85
2023-04-23T08:31:53.904Z,25.86
2023-04-23T08:32:54.038Z,25.85
2023-04-23T08:33:53.837Z,25.89
2023-04-23T08:34:53.840Z,25.89
2023-04-23T08:35:53.833Z,25.97
2023-04-23T08:36:53.844Z,25.97
2023-04-23T08:37:53.829Z,25.99
2023-04-23T08:38:53.833Z,26.03
2023-04-23T08:39:53.807Z,26.00
2023-04-23T08:40:53.822Z,25.97
2023-04-23T08:41:53.830Z,26.03
2023-04-23T08:42:53.822Z,26.11
2023-04-23T08:43:53.809Z,26.12
2023-04-23T08:44:53.838Z,26.11
2023-04-23T08:45:53.823Z,26.20
2023-04-23T08:46:53.872Z,26.19
2023-04-23T08:47:53.869Z,26.26
2023-04-23T08:48:53.842Z,26.31
2023-04-23T08:49:53.840Z,26.17
2023-04-23T08:50:53.825Z,26.26
2023-04-23T08:51:53.825Z,26.27
2023-04-23T08:52:53.848Z,26.30
2023-04-23T08:53:53.864Z,26.27
2023-04-23T08:54:53.849Z,26.27
2023-04-23T08:55:53.887Z,26.19
2023-04-23T08:56:53.818Z,26.30
2023-04-23T08:57:53.863Z,26.34
2023-04-23T08:58:56.446Z,26.31
2023-04-23T08:59:53.835Z,26.30
2023-04-23T09:00:53.905Z,26.31
2023-04-23T09:01:53.832Z,26.23
2023-04-23T09:02:53.975Z,26.26
2023-04-23T09:03:54.095Z,26.30
2023-04-23T09:04:56.053Z,26.31
2023-04-23T09:05:53.821Z,26.35
2023-04-23T09:06:53.849Z,26.23
2023-04-23T09:07:53.841Z,26.27
2023-04-23T09:08:53.820Z,26.24
2023-04-23T09:09:53.863Z,26.26
2023-04-23T09:10:53.812Z,26.31
2023-04-23T09:11:54.918Z,26.32
2023-04-23T09:12:53.816Z,26.32
2023-04-23T09:13:53.833Z,26.30
2023-04-23T09:14:53.832Z,26.24
2023-04-23T09:15:53.822Z,26.19
2023-04-23T09:16:54.026Z,26.22
2023-04-23T09:17:53.858Z,26.27
2023-04-23T09:18:53.818Z,26.26
2023-04-23T09:19:53.875Z,26.23
2023-04-23T09:20:53.834Z,26.23
2023-04-23T09:21:53.848Z,26.15
2023-04-23T09:22:53.867Z,26.11
2023-04-23T09:23:53.814Z,26.15
2023-04-23T09:24:53.810Z,26.15
2023-04-23T09:25:53.833Z,26.17
2023-04-23T09:26:53.824Z,26.09
2023-04-23T09:27:53.824Z,26.16
2023-04-23T09:28:53.855Z,26.12
2023-04-23T09:29:53.854Z,26.12
2023-04-23T09:30:53.838Z,26.07
2023-04-23T09:31:53.875Z,26.15
2023-04-23T09:32:53.913Z,26.12
2023-04-23T09:33:53.866Z,26.12
2023-04-23T09:34:53.832Z,26.07
2023-04-23T09:35:53.869Z,26.09
2023-04-23T09:36:53.823Z,26.11
2023-04-23T09:37:53.895Z,26.16
2023-04-23T09:38:53.838Z,26.22
2023-04-23T09:39:53.816Z,26.22
2023-04-23T09:40:53.822Z,26.24
2023-04-23T09:41:53.868Z,26.37
2023-04-23T09:42:53.855Z,26.19
2023-04-23T09:43:53.828Z,26.24
2023-04-23T09:44:53.839Z,26.35
2023-04-23T09:45:53.869Z,26.37
2023-04-23T09:46:53.811Z,26.31
2023-04-23T09:47:53.906Z,26.32
2023-04-23T09:48:53.817Z,26.39
2023-04-23T09:49:53.819Z,26.27
2023-04-23T09:50:53.836Z,26.34
2023-04-23T09:51:53.842Z,26.34
2023-04-23T09:52:53.838Z,26.38
2023-04-23T09:53:53.834Z,26.45
2023-04-23T09:54:53.829Z,26.50
2023-04-23T09:55:53.846Z,26.47
2023-04-23T09:56:53.964Z,26.56
2023-04-23T09:57:53.827Z,26.54
2023-04-23T09:58:53.841Z,26.57
2023-04-23T10:00:00.530Z,26.57
2023-04-23T10:00:53.857Z,26.64
2023-04-23T10:12:53.541Z,26.87
2023-04-23T10:13:40.714Z,27.00
2023-04-23T10:14:40.723Z,26.99
2023-04-23T10:15:40.774Z,27.01
2023-04-23T10:16:48.732Z,27.05
2023-04-23T10:17:40.734Z,27.15
2023-04-23T10:18:40.706Z,27.23
2023-04-23T10:19:41.470Z,27.21
2023-04-23T10:20:40.722Z,27.18
2023-04-23T10:21:53.393Z,27.37
2023-04-23T10:22:40.739Z,27.43
2023-04-23T10:23:40.706Z,27.43
2023-04-23T10:24:40.794Z,27.42
2023-04-23T10:25:40.727Z,27.49
2023-04-23T10:26:40.745Z,27.59
2023-04-23T10:27:52.172Z,27.59
2023-04-23T10:28:40.739Z,27.68
2023-04-23T10:29:40.895Z,27.66
2023-04-23T10:30:40.777Z,27.75
2023-04-23T10:31:40.783Z,27.80
2023-04-23T10:32:40.735Z,27.89
2023-04-23T10:33:55.376Z,27.93
2023-04-23T10:34:40.737Z,27.99
2023-04-23T10:35:40.738Z,27.94
2023-04-23T10:36:40.752Z,27.99
2023-04-23T10:37:40.755Z,28.02
2023-04-23T10:38:54.553Z,28.17
2023-04-23T10:39:40.759Z,28.16
2023-04-23T10:40:40.737Z,28.26
2023-04-23T10:41:40.860Z,28.36
2023-04-23T10:42:40.735Z,28.23
2023-04-23T10:43:40.754Z,28.27
2023-04-23T10:45:40.787Z,28.41
2023-04-23T10:46:40.759Z,28.51
2023-04-23T10:47:40.815Z,28.57
2023-04-23T10:48:40.756Z,28.55
2023-04-23T10:49:41.058Z,28.70
2023-04-23T10:51:00.338Z,28.70
2023-04-23T10:52:40.777Z,28.76
2023-04-23T10:53:40.772Z,28.72
2023-04-23T10:54:40.789Z,28.80
2023-04-23T10:55:40.797Z,28.82
2023-04-23T10:56:40.782Z,28.68
2023-04-23T10:57:40.798Z,28.83
2023-04-23T10:58:40.800Z,28.82
2023-04-23T10:59:40.967Z,28.73
2023-04-23T11:00:40.811Z,28.80
2023-04-23T11:01:40.839Z,28.75
2023-04-23T11:02:40.883Z,28.75
2023-04-23T11:03:43.960Z,28.75
2023-04-23T11:04:40.854Z,28.78
2023-04-23T11:05:40.798Z,28.82
2023-04-23T11:06:40.796Z,28.80
2023-04-23T11:07:40.809Z,28.86
2023-04-23T11:08:40.835Z,28.85
2023-04-23T11:09:41.202Z,28.92
2023-04-23T11:10:40.821Z,28.98
2023-04-23T11:11:40.819Z,29.03
2023-04-23T11:12:40.835Z,29.10
2023-04-23T11:13:40.844Z,29.18
2023-04-23T11:14:40.831Z,29.21
2023-04-23T11:15:40.831Z,29.26
2023-04-23T11:16:41.009Z,29.38
2023-04-23T11:17:40.888Z,29.42
2023-04-23T11:18:40.846Z,29.47
2023-04-23T11:19:41.093Z,29.52
2023-04-23T11:20:40.838Z,29.47
2023-04-23T11:21:40.833Z,29.45
2023-04-23T11:22:40.841Z,29.51
2023-04-23T11:23:40.854Z,29.52
2023-04-23T11:24:40.858Z,29.60
2023-04-23T11:25:40.845Z,29.63
2023-04-23T11:26:40.846Z,29.79
2023-04-23T11:27:40.889Z,29.77
2023-04-23T11:28:40.854Z,29.72
2023-04-23T11:29:41.216Z,29.72
2023-04-23T11:30:40.862Z,29.72
2023-04-23T11:31:50.605Z,29.67
2023-04-23T11:32:40.970Z,29.58
2023-04-23T11:33:40.895Z,29.54
2023-04-23T11:34:40.869Z,29.54
2023-04-23T11:35:40.887Z,29.51
2023-04-23T11:36:40.881Z,29.51
2023-04-23T11:37:40.892Z,29.43
2023-04-23T11:38:40.902Z,29.39
2023-04-23T11:39:41.220Z,29.38
2023-04-23T11:40:40.883Z,29.36
2023-04-23T11:41:40.885Z,29.29
2023-04-23T11:42:40.929Z,29.32
2023-04-23T11:43:40.913Z,29.35
2023-04-23T11:44:40.966Z,29.23
2023-04-23T11:45:40.928Z,29.24
2023-04-23T11:46:40.897Z,29.14
2023-04-23T11:47:40.953Z,29.15
2023-04-23T11:48:40.926Z,29.17
2023-04-23T11:49:41.130Z,29.18
2023-04-23T11:50:40.906Z,29.28
2023-04-23T11:51:40.911Z,29.33
2023-04-23T11:52:40.926Z,29.35
2023-04-23T11:53:40.923Z,29.40
2023-04-23T11:54:40.912Z,29.51
2023-04-23T11:55:40.933Z,29.58
2023-04-23T11:56:40.917Z,29.61
2023-04-23T11:57:40.927Z,29.69
2023-04-23T11:58:40.937Z,29.72
2023-04-23T11:59:41.179Z,29.76
2023-04-23T12:00:40.942Z,29.76
2023-04-23T12:01:40.953Z,29.79
2023-04-23T12:02:41.078Z,29.69
2023-04-23T12:03:41.032Z,29.73
2023-04-23T12:04:41.478Z,29.85
2023-04-23T12:05:41.046Z,29.87
2023-04-23T12:06:40.976Z,29.85
2023-04-23T12:07:40.984Z,29.87
2023-04-23T12:08:40.950Z,29.85
2023-04-23T12:09:41.225Z,29.91
2023-04-23T12:10:40.953Z,29.97
2023-04-23T12:11:40.971Z,30.02
2023-04-23T12:12:40.966Z,30.03
2023-04-23T12:13:40.969Z,29.98
2023-04-23T12:14:40.984Z,29.94
2023-04-23T12:15:41.052Z,29.97
2023-04-23T12:16:40.960Z,29.98
2023-04-23T12:17:41.003Z,29.98
2023-04-23T12:18:40.976Z,29.98
2023-04-23T12:19:41.176Z,29.92
2023-04-23T12:20:40.995Z,29.87
2023-04-23T12:21:40.973Z,29.92
2023-04-23T12:22:40.973Z,29.88
2023-04-23T12:23:40.986Z,29.94
2023-04-23T12:24:41.046Z,29.85
2023-04-23T12:25:41.000Z,29.89
2023-04-23T12:26:41.019Z,30.07
2023-04-23T12:27:41.027Z,30.13
2023-04-23T12:28:41.015Z,30.34
2023-04-23T12:29:41.231Z,30.34
2023-04-23T12:30:41.037Z,30.37
2023-04-23T12:31:41.062Z,30.52
2023-04-23T12:32:41.114Z,30.62
2023-04-23T12:33:41.054Z,30.67
2023-04-23T12:34:41.299Z,30.75
2023-04-23T12:35:41.014Z,30.86
2023-04-23T12:36:41.044Z,30.88
2023-04-23T12:37:41.023Z,30.89
2023-04-23T12:38:41.034Z,31.03
2023-04-23T12:39:41.501Z,31.01
2023-04-23T12:40:41.051Z,31.03
2023-04-23T12:41:41.036Z,31.12
2023-04-23T12:42:41.050Z,31.08
2023-04-23T12:43:41.042Z,31.01
2023-04-23T12:44:41.048Z,30.89
2023-04-23T12:45:41.095Z,30.88
2023-04-23T12:46:41.070Z,30.79
2023-04-23T12:47:41.091Z,30.88
2023-04-23T12:48:41.057Z,30.79
2023-04-23T12:49:41.321Z,30.73
2023-04-23T12:50:41.143Z,30.63
2023-04-23T12:51:41.067Z,30.62
2023-04-23T12:52:41.092Z,30.54
2023-04-23T12:53:41.111Z,30.52
2023-04-23T12:54:41.112Z,30.49
2023-04-23T12:55:41.145Z,30.48
2023-04-23T12:56:41.075Z,30.47
2023-04-23T12:57:41.101Z,30.47
2023-04-23T12:58:41.109Z,30.39
2023-04-23T12:59:41.623Z,30.39
2023-04-23T13:00:41.141Z,30.25
2023-04-23T13:01:41.130Z,30.18
2023-04-23T13:02:41.314Z,30.21
2023-04-23T13:03:41.243Z,30.11
2023-04-23T13:04:41.106Z,30.13
2023-04-23T13:05:41.110Z,30.09
2023-04-23T13:06:41.118Z,30.09
2023-04-23T13:07:41.132Z,30.10
2023-04-23T13:08:41.129Z,30.09
2023-04-23T13:09:41.341Z,30.14
2023-04-23T13:10:41.141Z,30.13
2023-04-23T13:11:41.113Z,30.22
2023-04-23T13:12:41.150Z,30.25
2023-04-23T13:13:41.120Z,30.21
2023-04-23T13:14:41.149Z,30.19
2023-04-23T13:15:41.126Z,30.34
2023-04-23T13:16:41.164Z,30.35
2023-04-23T13:17:41.190Z,30.51
2023-04-23T13:18:41.171Z,30.64
2023-04-23T13:19:41.526Z,30.64
2023-04-23T13:20:41.177Z,30.64
2023-04-23T13:21:41.192Z,30.59
2023-04-23T13:22:41.171Z,30.71
2023-04-23T13:23:41.178Z,30.78
2023-04-23T13:24:41.186Z,30.81
2023-04-23T13:25:41.194Z,30.88
2023-04-23T13:26:41.164Z,30.82
2023-04-23T13:27:41.196Z,30.79
2023-04-23T13:28:41.169Z,30.77
2023-04-23T13:29:41.438Z,30.67
2023-04-23T13:30:41.181Z,30.66
2023-04-23T13:31:41.271Z,30.56
2023-04-23T13:32:41.182Z,30.45
2023-04-23T13:33:41.167Z,30.39
2023-04-23T13:34:41.198Z,30.21
2023-04-23T13:35:41.207Z,30.13
2023-04-23T13:36:41.254Z,30.13
2023-04-23T13:37:41.213Z,30.03
2023-04-23T13:38:41.202Z,29.89
2023-04-23T13:39:41.959Z,29.84
2023-04-23T13:40:41.212Z,29.79
2023-04-23T13:41:41.221Z,29.67
2023-04-23T13:42:41.216Z,29.58
2023-04-23T13:43:41.211Z,29.45
2023-04-23T13:44:41.233Z,29.36
2023-04-23T13:45:41.254Z,29.35
2023-04-23T13:46:41.333Z,29.38
2023-04-23T13:47:41.281Z,29.23
2023-04-23T13:48:41.210Z,29.21
2023-04-23T13:49:41.633Z,29.14
2023-04-23T13:50:41.215Z,29.03
2023-04-23T13:51:41.219Z,29.05
2023-04-23T13:52:41.224Z,28.95
2023-04-23T13:53:41.217Z,28.88
2023-04-23T13:54:41.273Z,28.82
2023-04-23T13:55:41.235Z,28.79
2023-04-23T13:56:41.233Z,28.68
2023-04-23T13:57:41.261Z,28.70
2023-04-23T13:58:41.271Z,28.63
2023-04-23T13:59:41.537Z,28.55
2023-04-23T14:00:41.236Z,28.55
2023-04-23T14:01:41.383Z,28.49
2023-04-23T14:02:41.334Z,28.39
2023-04-23T14:03:41.229Z,28.46
2023-04-23T14:04:41.344Z,28.39
2023-04-23T14:05:41.246Z,28.33
2023-04-23T14:06:41.256Z,28.38
2023-04-23T14:07:41.256Z,28.31
2023-04-23T14:08:41.263Z,28.27
2023-04-23T14:12:13.811Z,28.46
2023-04-23T14:13:13.803Z,28.43
2023-04-23T14:14:13.825Z,28.58
2023-04-23T14:15:13.790Z,28.70
2023-04-23T14:16:13.806Z,28.72
2023-04-23T14:17:13.788Z,28.82
2023-04-23T14:18:13.787Z,28.85
2023-04-23T14:19:13.830Z,28.82
2023-04-23T14:20:13.802Z,28.95
2023-04-23T14:21:16.320Z,28.92
2023-04-23T14:22:13.833Z,28.98
2023-04-23T14:23:13.826Z,28.94
2023-04-23T14:24:13.836Z,28.97
2023-04-23T14:25:13.812Z,29.02
2023-04-23T14:26:13.821Z,29.02
2023-04-23T14:27:13.840Z,29.11
2023-04-23T14:28:13.815Z,29.15
2023-04-23T14:29:13.827Z,29.17
2023-04-23T14:30:13.830Z,29.23
2023-04-23T14:31:13.861Z,29.35
2023-04-23T14:32:13.830Z,29.42
2023-04-23T14:33:13.817Z,29.42
2023-04-23T14:34:13.835Z,29.45
2023-04-23T14:35:13.844Z,29.55
2023-04-23T14:36:13.830Z,29.61
2023-04-23T14:37:13.834Z,29.63
2023-04-23T14:38:13.827Z,29.63
2023-04-23T14:39:13.827Z,29.52
2023-04-23T14:40:13.875Z,29.57
2023-04-23T14:41:13.836Z,29.58
2023-04-23T14:42:13.939Z,29.61
2023-04-23T14:43:15.861Z,29.48
2023-04-23T14:44:13.873Z,29.39
2023-04-23T14:45:13.856Z,29.38
2023-04-23T14:46:13.862Z,29.32
2023-04-23T14:47:13.859Z,29.18
2023-04-23T14:48:13.841Z,29.14
2023-04-23T14:49:13.855Z,29.02
2023-04-23T14:50:13.890Z,28.97
2023-04-23T14:51:13.856Z,28.94
2023-04-23T14:52:13.878Z,28.78
2023-04-23T14:53:13.855Z,28.70
2023-04-23T14:54:13.867Z,28.60
2023-04-23T14:55:13.867Z,28.45
2023-04-23T14:56:34.873Z,28.28
2023-04-23T14:57:13.855Z,28.26
2023-04-23T14:58:13.858Z,28.14
2023-04-23T14:59:13.882Z,28.09
2023-04-23T15:00:13.933Z,28.01
2023-04-23T15:01:13.936Z,27.98
2023-04-23T15:02:13.997Z,27.79
2023-04-23T15:03:13.944Z,27.69
2023-04-23T15:04:14.022Z,27.65
2023-04-23T15:05:13.970Z,27.57
2023-04-23T15:06:13.895Z,27.61
2023-04-23T15:07:13.871Z,27.55
2023-04-23T15:08:13.872Z,27.38
2023-04-23T15:09:13.860Z,27.46
2023-04-23T15:10:13.875Z,27.28
2023-04-23T15:11:13.882Z,27.31
2023-04-23T15:12:13.870Z,27.28
2023-04-23T15:13:13.869Z,27.23
2023-04-23T15:14:13.866Z,27.24
2023-04-23T15:15:13.867Z,27.15
2023-04-23T15:16:13.941Z,27.04
2023-04-23T15:17:13.946Z,27.06
2023-04-23T15:18:13.883Z,27.04
2023-04-23T15:19:13.905Z,26.89
2023-04-23T15:20:13.876Z,26.90
2023-04-23T15:21:13.885Z,26.84
2023-04-23T15:22:13.874Z,26.94
2023-04-23T15:23:13.913Z,26.78
2023-04-23T15:24:13.883Z,26.78
2023-04-23T15:25:13.902Z,26.79
2023-04-23T15:26:13.978Z,26.68
2023-04-23T15:27:13.878Z,26.69
2023-04-23T15:28:13.885Z,26.63
2023-04-23T15:29:14.112Z,26.72
2023-04-23T15:30:13.874Z,26.57
2023-04-23T15:31:13.992Z,26.63
2023-04-23T15:32:13.888Z,26.74
2023-04-23T15:33:13.926Z,26.68
2023-04-23T15:34:13.877Z,26.76
2023-04-23T15:35:13.888Z,26.71
2023-04-23T15:36:13.918Z,26.68
2023-04-23T15:37:13.876Z,26.75
2023-04-23T15:38:13.869Z,26.63
2023-04-23T15:39:13.881Z,26.63
2023-04-23T15:40:13.873Z,26.69
2023-04-23T15:41:13.895Z,26.67
2023-04-23T15:42:13.877Z,26.64
2023-04-23T15:43:13.897Z,26.59
2023-04-23T15:44:13.870Z,26.63
2023-04-23T15:45:13.897Z,26.64
2023-04-23T15:46:13.982Z,26.60
2023-04-23T15:47:13.909Z,26.59
2023-04-23T15:48:13.881Z,26.57
2023-04-23T15:49:14.502Z,26.56
2023-04-23T15:50:13.885Z,26.57
2023-04-23T15:51:13.892Z,26.60
2023-04-23T15:52:13.899Z,26.59
2023-04-23T15:53:13.878Z,26.59
2023-04-23T15:54:13.885Z,26.60
2023-04-23T15:55:13.866Z,26.53
2023-04-23T15:56:13.867Z,26.53
2023-04-23T15:57:13.884Z,26.53
2023-04-23T15:58:13.880Z,26.47
2023-04-23T15:59:13.864Z,26.50
2023-04-23T16:00:13.867Z,26.44
2023-04-23T16:11:44.834Z,26.12
2023-04-23T16:12:44.790Z,26.06
2023-04-23T16:13:44.763Z,25.96
2023-04-23T16:14:44.768Z,25.93
2023-04-23T16:15:44.779Z,25.88
2023-04-23T16:16:44.855Z,25.81
2023-04-23T16:17:44.785Z,25.79
2023-04-23T16:18:44.750Z,25.78
2023-04-23T16:19:45.018Z,25.74
2023-04-23T16:20:44.780Z,25.75
2023-04-23T16:21:44.763Z,25.70
2023-04-23T16:22:44.756Z,25.62
2023-04-23T16:23:44.756Z,25.63
2023-04-23T16:24:44.764Z,25.54
2023-04-23T16:25:44.743Z,25.52
2023-04-23T16:26:44.775Z,25.37
2023-04-23T16:27:44.780Z,25.41
2023-04-23T16:28:45.789Z,25.42
2023-04-23T16:29:44.771Z,25.39
2023-04-23T16:30:44.777Z,25.39
2023-04-23T16:31:44.773Z,25.32
2023-04-23T16:32:44.799Z,25.32
2023-04-23T16:33:44.742Z,25.24
2023-04-23T16:34:44.834Z,25.19
2023-04-23T16:35:44.743Z,25.15
2023-04-23T16:36:44.745Z,25.11
2023-04-23T16:37:44.736Z,25.12
2023-04-23T16:38:44.722Z,25.08
2023-04-23T16:39:44.728Z,25.07
2023-04-23T16:40:44.732Z,25.07
2023-04-23T16:41:44.825Z,25.02
2023-04-23T16:42:44.743Z,25.02
2023-04-23T16:43:44.954Z,25.01
2023-04-23T16:44:44.837Z,24.92
2023-04-23T16:45:44.721Z,24.93
2023-04-23T16:46:44.735Z,24.92
2023-04-23T16:47:44.717Z,24.82
2023-04-23T16:48:44.802Z,24.82
2023-04-23T16:49:44.750Z,24.78
2023-04-23T16:50:44.714Z,24.78
2023-04-23T16:51:44.713Z,24.74
2023-04-23T16:52:44.710Z,24.74
2023-04-23T16:53:44.715Z,24.71
2023-04-23T16:54:44.957Z,24.63
2023-04-23T16:55:44.739Z,24.63
2023-04-23T16:56:44.702Z,24.59
2023-04-23T16:57:44.712Z,24.58
2023-04-23T16:58:44.697Z,24.46
2023-04-23T16:59:44.737Z,24.44
2023-04-23T17:00:44.710Z,24.45
2023-04-23T17:01:44.719Z,24.49
2023-04-23T17:02:44.808Z,24.44
2023-04-23T17:03:44.891Z,24.39
2023-04-23T17:04:45.018Z,24.39
2023-04-23T17:05:44.694Z,24.30
2023-04-23T17:06:44.675Z,24.32
2023-04-23T17:07:44.700Z,24.33
2023-04-23T17:08:44.699Z,24.33
2023-04-23T17:09:44.679Z,24.22
2023-04-23T17:10:44.689Z,24.26
2023-04-23T17:11:44.662Z,24.22
2023-04-23T17:12:44.669Z,24.22
2023-04-23T17:13:44.686Z,24.24
2023-04-23T17:14:44.716Z,24.18
2023-04-23T17:15:44.703Z,24.22
2023-04-23T17:16:44.752Z,24.15
2023-04-23T17:17:44.707Z,24.14